Time;durP1;ratioP1;P1;durP2;ratioP2;P2;SDS_P1;SDS_P2;PMS_P1;PMS_P2;Temp;Humidity;BMP_temperature;BMP_pressure;BME280_temperature;BME280_humidity;BME280_pressure;Samples;Min_cycle;Max_cycle;Signal;HPM_P1;HPM_P2
2022/10/27 00:00:07;;;;;;;0.45;0.38;;;8.10;99.90;;;;;;5036011;28;20197;-77
2022/10/27 00:02:33;;;;;;;0.25;0.25;;;8.10;99.90;;;;;;5035832;28;20202;-77
2022/10/27 00:04:58;;;;;;;0.40;0.40;;;8.10;99.90;;;;;;5026918;28;20213;-77
2022/10/27 00:07:24;;;;;;;0.20;0.20;;;8.10;99.90;;;;;;5055535;28;20204;-77
2022/10/27 00:09:50;;;;;;;1.00;0.45;;;8.10;99.90;;;;;;5037786;28;20205;-77
2022/10/27 00:12:15;;;;;;;0.32;0.32;;;8.20;99.90;;;;;;5045812;28;20295;-78
2022/10/27 00:14:41;;;;;;;0.20;0.20;;;8.20;99.90;;;;;;5057457;28;20283;-78
2022/10/27 00:17:07;;;;;;;0.30;0.30;;;8.20;99.90;;;;;;5075371;28;20189;-78
2022/10/27 00:19:33;;;;;;;0.25;0.25;;;8.20;99.90;;;;;;5057379;28;20193;-78
2022/10/27 00:21:59;;;;;;;0.25;0.25;;;8.20;99.90;;;;;;5075368;28;20189;-77
2022/10/27 00:24:24;;;;;;;6.55;1.27;;;8.20;99.90;;;;;;5057230;28;20968;-78
2022/10/27 00:26:50;;;;;;;0.20;0.20;;;8.30;99.90;;;;;;5067296;28;20278;-78
2022/10/27 00:29:16;;;;;;;0.52;0.45;;;8.30;99.90;;;;;;5016813;28;20236;-77
2022/10/27 00:31:42;;;;;;;0.20;0.20;;;8.30;99.90;;;;;;5017434;28;20205;-78
2022/10/27 00:34:07;;;;;;;0.30;0.30;;;8.30;99.90;;;;;;5035188;28;20206;-77
2022/10/27 00:36:33;;;;;;;2.78;1.80;;;8.30;99.90;;;;;;5035134;28;20198;-78
2022/10/27 00:38:59;;;;;;;1.30;0.63;;;8.40;99.90;;;;;;5049705;28;20571;-77
2022/10/27 00:41:45;;;;;;;0.20;0.20;;;8.40;99.90;;;;;;5054326;28;20328;-77
2022/10/27 00:44:33;;;;;;;0.20;0.20;;;8.40;99.90;;;;;;5036375;28;20223;-77
2022/10/27 00:47:05;;;;;;;0.43;0.43;;;8.50;99.90;;;;;;5054690;28;20197;-77
2022/10/27 00:50:02;;;;;;;0.20;0.20;;;8.60;99.90;;;;;;5054781;28;20370;-78
2022/10/27 00:52:47;;;;;;;0.20;0.20;;;8.70;99.90;;;;;;5027424;28;20292;-78
2022/10/27 00:55:17;;;;;;;0.20;0.20;;;8.80;99.90;;;;;;5054133;28;20201;-77
2022/10/27 00:57:47;;;;;;;0.38;0.38;;;8.80;99.90;;;;;;5054379;28;20213;-77
2022/10/27 01:00:13;;;;;;;0.30;0.30;;;8.90;99.90;;;;;;5036631;28;20194;-77
2022/10/27 01:02:39;;;;;;;0.65;0.65;;;8.90;99.90;;;;;;5054669;28;20201;-77
2022/10/27 01:05:26;;;;;;;0.30;0.30;;;8.90;99.90;;;;;;5054520;28;20568;-77
2022/10/27 01:07:54;;;;;;;0.20;0.20;;;8.90;99.90;;;;;;5036742;28;20201;-77
2022/10/27 01:10:21;;;;;;;0.30;0.30;;;9.00;99.90;;;;;;5054334;28;20200;-77
2022/10/27 01:12:47;;;;;;;0.88;0.88;;;9.10;99.90;;;;;;5054451;28;20208;-77
2022/10/27 01:15:13;;;;;;;0.28;0.28;;;9.20;99.90;;;;;;5054447;28;20225;-78
2022/10/27 01:18:07;;;;;;;0.32;0.32;;;9.20;99.90;;;;;;5054191;28;20215;-77
2022/10/27 01:20:59;;;;;;;0.30;0.30;;;9.20;99.90;;;;;;5054173;28;20643;-78
2022/10/27 01:23:57;;;;;;;1.63;0.43;;;9.30;99.90;;;;;;5060607;28;20594;-78
2022/10/27 01:26:41;;;;;;;0.20;0.20;;;9.30;99.90;;;;;;5056198;28;20732;-77
2022/10/27 01:29:41;;;;;;;0.75;0.63;;;9.40;99.90;;;;;;5074062;28;20703;-77
2022/10/27 01:32:28;;;;;;;0.30;0.30;;;9.40;99.90;;;;;;5073284;28;20208;-77
2022/10/27 01:35:01;;;;;;;0.35;0.35;;;9.40;99.90;;;;;;5073980;28;20219;-76
2022/10/27 01:37:28;;;;;;;0.10;0.10;;;9.50;99.90;;;;;;5073767;28;20196;-76
2022/10/27 01:40:26;;;;;;;0.30;0.30;;;9.50;99.90;;;;;;5073445;28;20611;-77
2022/10/27 01:43:09;;;;;;;1.33;1.00;;;9.60;99.90;;;;;;5023102;28;20204;-77
2022/10/27 01:45:37;;;;;;;3.00;1.13;;;9.60;99.90;;;;;;5069276;28;20221;-77
2022/10/27 01:48:05;;;;;;;0.32;0.32;;;9.70;99.90;;;;;;5046750;28;20202;-78
2022/10/27 01:50:37;;;;;;;0.40;0.40;;;9.70;99.90;;;;;;5033750;28;20196;-77
2022/10/27 01:53:03;;;;;;;0.50;0.50;;;9.70;99.90;;;;;;5033763;28;20197;-77
2022/10/27 01:55:59;;;;;;;0.75;0.75;;;9.70;99.90;;;;;;5033021;28;20198;-77
2022/10/27 01:58:54;;;;;;;2.28;0.43;;;9.80;99.90;;;;;;5050061;28;20218;-77
2022/10/27 02:01:41;;;;;;;0.55;0.55;;;9.80;99.90;;;;;;5015738;28;20205;-77
2022/10/27 02:04:21;;;;;;;2.10;1.55;;;9.80;99.90;;;;;;5066446;28;20647;-77
2022/10/27 02:07:05;;;;;;;0.10;0.10;;;9.80;99.90;;;;;;5049338;28;20213;-78
2022/10/27 02:09:37;;;;;;;0.20;0.20;;;9.80;99.90;;;;;;5053316;28;20228;-78
2022/10/27 02:12:14;;;;;;;0.22;0.22;;;9.80;99.90;;;;;;5053322;28;20660;-78
2022/10/27 02:14:42;;;;;;;0.45;0.45;;;9.80;99.90;;;;;;5053208;28;20196;-78
2022/10/27 02:17:10;;;;;;;1.45;1.35;;;9.80;99.90;;;;;;5053265;28;20598;-78
2022/10/27 02:19:38;;;;;;;0.82;0.82;;;9.80;99.90;;;;;;5041586;28;20188;-78
2022/10/27 02:22:05;;;;;;;0.47;0.47;;;9.80;99.90;;;;;;5073363;28;20241;-78
2022/10/27 02:24:31;;;;;;;3.25;1.17;;;9.90;99.90;;;;;;5073217;28;20192;-79
2022/10/27 02:27:10;;;;;;;0.60;0.60;;;9.90;99.90;;;;;;5073389;28;20197;-78
2022/10/27 02:29:46;;;;;;;1.13;0.85;;;9.90;99.90;;;;;;5073110;28;20204;-78
2022/10/27 02:32:23;;;;;;;1.90;1.80;;;9.90;99.90;;;;;;5055261;28;20184;-78
2022/10/27 02:34:50;;;;;;;2.22;1.15;;;10.00;99.90;;;;;;5055256;28;20243;-78
2022/10/27 02:37:26;;;;;;;1.23;0.93;;;10.00;99.90;;;;;;5073056;28;20267;-78
2022/10/27 02:39:52;;;;;;;0.93;0.93;;;10.00;99.90;;;;;;5073233;28;20188;-78
2022/10/27 02:42:17;;;;;;;1.55;0.95;;;10.00;99.90;;;;;;5073174;28;20552;-77
2022/10/27 02:44:43;;;;;;;0.75;0.75;;;10.00;99.90;;;;;;5031543;28;20306;-77
2022/10/27 02:47:08;;;;;;;0.95;0.93;;;10.00;99.90;;;;;;5036946;28;20194;-78
2022/10/27 02:49:34;;;;;;;0.60;0.60;;;10.00;99.90;;;;;;5037187;28;20194;-76
2022/10/27 02:52:03;;;;;;;9.23;0.95;;;10.00;99.90;;;;;;5019346;28;20561;-76
2022/10/27 02:54:29;;;;;;;0.75;0.75;;;10.00;99.90;;;;;;5052237;28;20197;-77
2022/10/27 02:56:55;;;;;;;1.27;1.20;;;10.10;99.90;;;;;;5039418;28;20288;-76
2022/10/27 02:59:20;;;;;;;0.93;0.93;;;10.00;99.90;;;;;;5056701;28;20288;-77
2022/10/27 03:01:46;;;;;;;0.80;0.80;;;10.10;99.90;;;;;;5030090;28;20194;-77
2022/10/27 03:04:12;;;;;;;0.70;0.70;;;10.10;99.90;;;;;;5055988;28;20201;-77
2022/10/27 03:06:37;;;;;;;0.85;0.85;;;10.10;99.90;;;;;;5057105;28;20202;-77
2022/10/27 03:09:03;;;;;;;0.70;0.70;;;10.10;99.90;;;;;;5056753;28;20217;-76
2022/10/27 03:11:28;;;;;;;1.40;1.30;;;10.10;99.90;;;;;;5038840;28;20197;-77
2022/10/27 03:13:54;;;;;;;0.88;0.88;;;10.20;99.90;;;;;;5056700;28;20220;-77
2022/10/27 03:16:20;;;;;;;0.73;0.73;;;10.20;99.90;;;;;;5066376;28;20193;-76
2022/10/27 03:18:45;;;;;;;3.40;1.20;;;10.20;99.90;;;;;;5076831;28;20569;-77
2022/10/27 03:21:11;;;;;;;0.63;0.63;;;10.20;99.90;;;;;;5076287;28;20193;-77
2022/10/27 03:23:37;;;;;;;0.80;0.80;;;10.20;99.90;;;;;;5057936;28;20225;-76
2022/10/27 03:26:02;;;;;;;0.80;0.80;;;10.20;99.90;;;;;;5076510;28;20239;-77
2022/10/27 03:28:30;;;;;;;0.85;0.75;;;10.20;99.90;;;;;;5058362;28;20197;-77
2022/10/27 03:30:56;;;;;;;0.90;0.90;;;10.20;99.90;;;;;;5060847;28;20198;-77
2022/10/27 03:33:22;;;;;;;0.50;0.50;;;10.30;99.90;;;;;;5056339;28;20212;-76
2022/10/27 03:35:47;;;;;;;0.80;0.80;;;10.30;99.90;;;;;;5038448;28;20201;-77
2022/10/27 03:38:13;;;;;;;1.08;0.88;;;10.30;99.90;;;;;;5038342;28;20206;-77
2022/10/27 03:40:38;;;;;;;0.98;0.93;;;10.30;99.90;;;;;;5048165;28;20202;-76
2022/10/27 03:43:04;;;;;;;1.40;1.30;;;10.30;99.90;;;;;;5018330;28;20248;-76
2022/10/27 03:45:30;;;;;;;0.88;0.88;;;10.30;99.90;;;;;;5017693;28;20296;-76
2022/10/27 03:48:06;;;;;;;0.70;0.70;;;10.30;99.90;;;;;;5018278;28;20304;-76
2022/10/27 03:50:33;;;;;;;0.70;0.70;;;10.30;99.90;;;;;;5049483;28;20212;-77
2022/10/27 03:52:59;;;;;;;2.25;1.38;;;10.40;99.90;;;;;;5055829;28;20580;-76
2022/10/27 03:55:24;;;;;;;0.75;0.75;;;10.40;99.90;;;;;;5037523;28;20201;-76
2022/10/27 03:57:51;;;;;;;0.50;0.50;;;10.40;99.90;;;;;;5055963;28;20213;-77
2022/10/27 04:00:17;;;;;;;0.73;0.73;;;10.40;99.90;;;;;;5055826;28;20200;-76
2022/10/27 04:02:43;;;;;;;1.15;1.05;;;10.40;99.90;;;;;;5037293;28;20198;-76
2022/10/27 04:05:08;;;;;;;0.68;0.68;;;10.40;99.90;;;;;;5055495;28;20193;-76
2022/10/27 04:07:34;;;;;;;1.30;1.25;;;10.40;99.90;;;;;;5055643;28;20710;-76
2022/10/27 04:10:00;;;;;;;1.48;1.13;;;10.40;99.90;;;;;;5055610;28;20297;-77
2022/10/27 04:12:25;;;;;;;1.00;0.90;;;10.50;99.90;;;;;;5059801;28;20205;-76
2022/10/27 04:14:51;;;;;;;0.75;0.75;;;10.50;99.90;;;;;;5037861;28;20284;-77
2022/10/27 04:17:18;;;;;;;0.70;0.70;;;10.60;99.90;;;;;;5055401;28;20323;-75
2022/10/27 04:19:43;;;;;;;0.93;0.93;;;10.60;99.90;;;;;;5035425;28;20296;-75
2022/10/27 04:22:09;;;;;;;1.45;1.35;;;10.60;99.90;;;;;;5055576;28;20685;-75
2022/10/27 04:24:35;;;;;;;0.90;0.80;;;10.60;99.90;;;;;;5055178;28;20204;-74
2022/10/27 04:27:01;;;;;;;1.25;1.15;;;10.60;99.90;;;;;;5055385;28;20201;-75
2022/10/27 04:29:26;;;;;;;1.58;0.95;;;10.60;99.90;;;;;;5037142;28;20197;-75
2022/10/27 04:31:52;;;;;;;0.70;0.70;;;10.60;99.90;;;;;;5037545;28;20194;-76
2022/10/27 04:34:17;;;;;;;1.50;1.40;;;10.60;99.90;;;;;;5055194;28;20323;-77
2022/10/27 04:36:43;;;;;;;2.15;1.65;;;10.60;99.90;;;;;;5030876;28;20190;-77
2022/10/27 04:39:13;;;;;;;0.95;0.95;;;10.60;99.90;;;;;;5035033;28;20269;-76
2022/10/27 04:41:39;;;;;;;1.15;1.05;;;10.70;99.90;;;;;;5034500;28;20194;-77
2022/10/27 04:44:05;;;;;;;1.45;1.00;;;10.70;99.90;;;;;;5034528;28;20572;-74
2022/10/27 04:46:31;;;;;;;2.88;1.25;;;10.70;99.90;;;;;;5028882;28;20205;-77
2022/10/27 04:48:57;;;;;;;0.73;0.73;;;10.70;99.90;;;;;;5037065;28;20197;-75
2022/10/27 04:51:22;;;;;;;2.35;1.05;;;10.70;99.90;;;;;;5054590;28;20280;-75
2022/10/27 04:53:48;;;;;;;0.50;0.50;;;10.70;99.90;;;;;;5055392;28;20277;-77
2022/10/27 04:56:14;;;;;;;1.88;1.35;;;10.70;99.90;;;;;;5036459;28;20252;-76
2022/10/27 04:58:39;;;;;;;1.10;1.10;;;10.70;99.90;;;;;;5055121;28;20217;-75
2022/10/27 05:01:10;;;;;;;1.05;0.90;;;10.80;99.90;;;;;;5054968;28;20198;-75
2022/10/27 05:03:36;;;;;;;1.23;1.08;;;10.80;99.90;;;;;;5054880;28;20690;-74
2022/10/27 05:06:02;;;;;;;1.25;1.08;;;10.80;99.90;;;;;;5054733;28;20212;-75
2022/10/27 05:08:28;;;;;;;1.20;1.10;;;10.80;99.90;;;;;;5042559;28;20709;-76
2022/10/27 05:10:53;;;;;;;0.88;0.88;;;10.80;99.90;;;;;;5074487;28;20219;-75
2022/10/27 05:13:19;;;;;;;0.73;0.73;;;10.90;99.90;;;;;;5074232;28;20189;-76
2022/10/27 05:15:44;;;;;;;1.60;1.50;;;10.90;99.90;;;;;;5074520;28;20208;-76
2022/10/27 05:18:10;;;;;;;1.08;1.08;;;10.90;99.90;;;;;;5074474;28;20204;-76
2022/10/27 05:20:36;;;;;;;1.80;1.45;;;10.90;99.90;;;;;;5055832;28;20189;-76
2022/10/27 05:23:01;;;;;;;0.85;0.85;;;11.00;99.90;;;;;;5074216;28;20196;-76
2022/10/27 05:25:27;;;;;;;2.53;1.20;;;11.10;99.90;;;;;;5056049;28;20193;-75
2022/10/27 05:27:53;;;;;;;0.90;0.90;;;11.10;99.90;;;;;;5074340;28;20196;-75
2022/10/27 05:30:18;;;;;;;0.60;0.60;;;11.10;99.90;;;;;;5056278;28;20227;-75
2022/10/27 05:32:44;;;;;;;0.90;0.90;;;11.10;99.90;;;;;;5069505;28;20193;-75
2022/10/27 05:35:10;;;;;;;1.13;1.13;;;11.10;99.90;;;;;;5053963;28;20197;-75
2022/10/27 05:37:36;;;;;;;1.60;1.17;;;11.10;99.90;;;;;;5053757;28;20569;-75
2022/10/27 05:40:01;;;;;;;1.42;1.33;;;11.10;99.90;;;;;;5036073;28;20194;-75
2022/10/27 05:42:27;;;;;;;3.20;1.50;;;11.10;99.90;;;;;;5054053;28;20604;-75
2022/10/27 05:44:53;;;;;;;0.70;0.70;;;11.10;99.90;;;;;;5053614;28;20221;-76
2022/10/27 05:47:18;;;;;;;0.70;0.70;;;11.00;99.90;;;;;;5035295;28;20277;-75
2022/10/27 05:49:44;;;;;;;0.85;0.82;;;10.90;99.90;;;;;;5016147;28;20197;-75
2022/10/27 05:52:10;;;;;;;0.70;0.70;;;10.90;99.90;;;;;;5042627;28;20197;-75
2022/10/27 05:54:35;;;;;;;0.80;0.75;;;10.80;99.90;;;;;;5053639;28;20193;-76
2022/10/27 05:57:01;;;;;;;15.80;1.20;;;10.70;99.90;;;;;;5035735;28;20222;-75
2022/10/27 05:59:27;;;;;;;0.98;0.98;;;10.70;99.90;;;;;;5052864;28;20209;-75
2022/10/27 06:01:52;;;;;;;0.95;0.93;;;10.60;99.90;;;;;;5035645;28;20220;-74
2022/10/27 06:04:18;;;;;;;0.90;0.90;;;10.50;99.90;;;;;;5056908;28;20402;-75
2022/10/27 06:06:44;;;;;;;0.60;0.60;;;10.50;99.90;;;;;;5073548;28;20215;-75
2022/10/27 06:09:09;;;;;;;0.90;0.90;;;10.60;99.90;;;;;;5073539;28;20189;-75
2022/10/27 06:11:35;;;;;;;0.70;0.70;;;10.50;99.90;;;;;;5073400;28;20200;-75
2022/10/27 06:14:00;;;;;;;3.00;1.65;;;10.50;99.90;;;;;;5073458;28;20560;-75
2022/10/27 06:16:26;;;;;;;0.65;0.65;;;10.40;99.90;;;;;;5073278;28;20220;-75
2022/10/27 06:18:53;;;;;;;1.60;1.45;;;10.40;99.90;;;;;;5073197;28;20220;-75
2022/10/27 06:21:19;;;;;;;1.27;1.17;;;10.40;99.90;;;;;;5073239;28;20201;-75
2022/10/27 06:23:48;;;;;;;0.68;0.68;;;10.30;99.90;;;;;;5073741;28;20192;-74
2022/10/27 06:26:14;;;;;;;0.85;0.85;;;10.20;99.90;;;;;;5073244;28;20193;-75
2022/10/27 06:28:40;;;;;;;1.88;1.27;;;10.10;99.90;;;;;;5053313;28;20550;-75
2022/10/27 06:31:06;;;;;;;2.30;1.13;;;10.00;99.90;;;;;;5053267;28;20201;-75
2022/10/27 06:33:32;;;;;;;0.70;0.70;;;10.00;99.90;;;;;;5052898;28;20189;-75
2022/10/27 06:35:57;;;;;;;0.50;0.50;;;10.00;99.90;;;;;;5035437;28;20200;-76
2022/10/27 06:38:23;;;;;;;0.90;0.90;;;9.90;99.90;;;;;;5052605;28;20768;-75
2022/10/27 06:40:48;;;;;;;1.17;0.88;;;9.80;99.90;;;;;;5035301;28;20637;-75
2022/10/27 06:43:14;;;;;;;0.70;0.68;;;9.70;99.90;;;;;;5053098;28;20190;-75
2022/10/27 06:45:44;;;;;;;0.75;0.75;;;9.60;99.90;;;;;;5031443;28;20230;-75
2022/10/27 06:48:10;;;;;;;0.68;0.68;;;9.70;99.90;;;;;;5033094;28;20217;-75
2022/10/27 06:50:36;;;;;;;0.57;0.57;;;9.70;99.90;;;;;;5015183;28;20234;-75
2022/10/27 06:53:02;;;;;;;1.05;0.95;;;9.70;99.90;;;;;;5015376;28;20230;-75
2022/10/27 06:55:28;;;;;;;0.77;0.77;;;9.70;99.90;;;;;;5032898;28;20225;-75
2022/10/27 06:57:54;;;;;;;1.25;0.93;;;9.60;99.90;;;;;;5033101;28;20206;-75
2022/10/27 07:00:21;;;;;;;0.57;0.57;;;9.70;99.90;;;;;;5018583;28;20194;-75
2022/10/27 07:02:47;;;;;;;1.42;1.35;;;9.80;99.90;;;;;;5073117;28;20189;-75
2022/10/27 07:05:13;;;;;;;0.90;0.90;;;9.80;99.90;;;;;;5072885;28;20259;-75
2022/10/27 07:07:38;;;;;;;0.50;0.50;;;9.80;99.90;;;;;;5072693;28;20232;-75
2022/10/27 07:10:06;;;;;;;0.70;0.70;;;10.00;99.90;;;;;;5072971;28;20613;-75
2022/10/27 07:12:32;;;;;;;0.90;0.90;;;10.20;99.90;;;;;;5072726;28;20196;-76
2022/10/27 07:14:58;;;;;;;0.75;0.75;;;10.40;99.90;;;;;;5072770;28;20189;-75
2022/10/27 07:17:23;;;;;;;0.60;0.60;;;10.40;99.90;;;;;;5072158;28;20193;-75
2022/10/27 07:19:49;;;;;;;0.45;0.45;;;10.50;99.90;;;;;;5054665;28;20212;-75
2022/10/27 07:22:15;;;;;;;0.50;0.50;;;10.60;99.90;;;;;;5072622;28;20319;-75
2022/10/27 07:24:40;;;;;;;0.50;0.50;;;10.80;99.90;;;;;;5054562;28;20196;-75
2022/10/27 07:27:06;;;;;;;1.58;1.48;;;11.00;99.90;;;;;;5052587;28;20205;-76
2022/10/27 07:29:31;;;;;;;0.60;0.60;;;11.10;99.90;;;;;;5034673;28;20194;-76
2022/10/27 07:31:57;;;;;;;0.90;0.90;;;11.10;99.90;;;;;;5054870;28;20201;-76
2022/10/27 07:34:23;;;;;;;1.25;1.15;;;11.30;99.90;;;;;;5056481;28;20288;-76
2022/10/27 07:36:48;;;;;;;2.75;1.20;;;11.40;99.90;;;;;;5056382;28;20273;-76
2022/10/27 07:39:14;;;;;;;0.43;0.43;;;11.60;99.90;;;;;;5056076;28;20213;-75
2022/10/27 07:41:40;;;;;;;1.42;0.77;;;11.70;99.90;;;;;;5056047;28;20190;-75
2022/10/27 07:44:05;;;;;;;0.90;0.90;;;11.80;99.90;;;;;;5056145;28;20231;-75
2022/10/27 07:46:31;;;;;;;0.60;0.60;;;11.80;99.90;;;;;;5046646;28;20259;-75
2022/10/27 07:48:57;;;;;;;0.95;0.95;;;11.90;99.90;;;;;;5056090;28;20190;-75
2022/10/27 07:51:22;;;;;;;0.70;0.70;;;12.00;99.90;;;;;;5055848;28;20558;-74
2022/10/27 07:53:49;;;;;;;0.80;0.80;;;12.00;99.90;;;;;;5055947;28;20263;-75
2022/10/27 07:56:16;;;;;;;0.90;0.90;;;12.00;99.90;;;;;;5055329;28;20216;-74
2022/10/27 07:58:42;;;;;;;1.48;1.10;;;11.90;99.90;;;;;;5074800;28;20663;-75
2022/10/27 08:01:07;;;;;;;0.60;0.60;;;12.00;99.90;;;;;;5057788;28;20193;-75
2022/10/27 08:03:33;;;;;;;0.88;0.50;;;12.00;99.90;;;;;;5075575;28;20204;-75
2022/10/27 08:06:02;;;;;;;0.65;0.65;;;11.90;99.90;;;;;;5057797;28;20231;-75
2022/10/27 08:08:29;;;;;;;0.93;0.85;;;11.90;99.90;;;;;;5075670;28;20670;-75
2022/10/27 08:10:55;;;;;;;0.52;0.52;;;11.90;99.90;;;;;;5075709;28;20228;-74
2022/10/27 08:13:20;;;;;;;0.50;0.50;;;11.80;99.90;;;;;;5075533;28;20294;-75
2022/10/27 08:15:46;;;;;;;0.45;0.45;;;11.80;99.90;;;;;;5052866;28;20206;-76
2022/10/27 08:18:12;;;;;;;0.85;0.68;;;11.80;99.90;;;;;;5055406;28;20206;-76
2022/10/27 08:20:46;;;;;;;0.82;0.82;;;11.70;99.90;;;;;;5055213;28;20211;-76
2022/10/27 08:23:19;;;;;;;0.50;0.50;;;11.70;99.90;;;;;;5034005;28;20197;-77
2022/10/27 08:25:45;;;;;;;0.50;0.50;;;11.70;99.90;;;;;;5018100;28;20194;-76
2022/10/27 08:28:12;;;;;;;0.60;0.60;;;11.70;99.90;;;;;;5035497;28;20194;-75
2022/10/27 08:30:37;;;;;;;0.50;0.50;;;11.70;99.90;;;;;;5039817;28;20307;-75
2022/10/27 08:33:04;;;;;;;1.05;0.90;;;11.70;99.90;;;;;;5055321;28;20280;-75
2022/10/27 08:35:32;;;;;;;0.50;0.50;;;11.70;99.90;;;;;;5054945;28;20194;-75
2022/10/27 08:38:01;;;;;;;0.60;0.60;;;11.80;99.90;;;;;;5037258;28;20212;-75
2022/10/27 08:40:48;;;;;;;0.90;0.90;;;11.80;99.90;;;;;;5054405;28;20743;-75
2022/10/27 08:43:47;;;;;;;0.60;0.60;;;11.90;99.90;;;;;;5037072;28;20660;-75
2022/10/27 08:46:16;;;;;;;0.55;0.55;;;11.90;99.90;;;;;;5054523;28;20271;-75
2022/10/27 08:48:43;;;;;;;0.40;0.40;;;12.00;99.90;;;;;;5054842;28;20630;-75
2022/10/27 08:51:17;;;;;;;0.60;0.60;;;12.00;99.90;;;;;;5037120;28;20198;-75
2022/10/27 08:53:47;;;;;;;0.70;0.70;;;12.10;99.90;;;;;;5063705;28;20670;-76
2022/10/27 08:56:14;;;;;;;0.60;0.60;;;12.00;99.90;;;;;;5074740;28;20708;-75
2022/10/27 08:58:45;;;;;;;0.73;0.70;;;12.10;99.90;;;;;;5074607;28;20213;-75
2022/10/27 09:01:16;;;;;;;0.70;0.70;;;12.10;99.90;;;;;;5074020;28;20660;-75
2022/10/27 09:04:00;;;;;;;1.35;1.15;;;12.20;99.90;;;;;;5056153;28;20196;-74
2022/10/27 09:06:30;;;;;;;0.60;0.60;;;12.20;99.90;;;;;;5074109;28;20280;-75
2022/10/27 09:09:16;;;;;;;0.70;0.70;;;12.30;99.90;;;;;;5073981;28;20663;-75
2022/10/27 09:11:55;;;;;;;0.50;0.50;;;12.40;99.90;;;;;;5056516;28;20689;-75
2022/10/27 09:14:27;;;;;;;1.13;1.02;;;12.40;99.90;;;;;;5074286;28;20724;-75
2022/10/27 09:16:58;;;;;;;1.80;1.05;;;12.40;99.90;;;;;;5056426;28;20250;-75
2022/10/27 09:19:34;;;;;;;0.60;0.60;;;12.50;99.90;;;;;;5037358;28;20206;-75
2022/10/27 09:22:04;;;;;;;2.50;0.90;;;12.60;99.90;;;;;;5033809;28;20764;-75
2022/10/27 09:24:33;;;;;;;2.20;1.38;;;12.70;99.90;;;;;;5033637;28;20248;-74
2022/10/27 09:27:01;;;;;;;0.70;0.70;;;12.80;99.90;;;;;;5039696;28;20263;-75
2022/10/27 09:29:28;;;;;;;4.03;1.02;;;12.90;99.90;;;;;;5054021;28;20243;-75
2022/10/27 09:32:01;;;;;;;0.80;0.80;;;13.00;99.90;;;;;;5054016;28;20193;-75
2022/10/27 09:34:38;;;;;;;3.53;1.30;;;13.30;99.90;;;;;;5053305;28;20335;-75
2022/10/27 09:37:15;;;;;;;0.52;0.52;;;13.40;99.90;;;;;;5053993;28;20240;-75
2022/10/27 09:39:49;;;;;;;3.72;1.25;;;13.50;99.90;;;;;;5036025;28;20209;-74
2022/10/27 09:42:18;;;;;;;1.40;1.20;;;13.60;99.90;;;;;;5036486;28;20683;-75
2022/10/27 09:44:59;;;;;;;1.42;1.27;;;13.70;99.90;;;;;;5035660;28;20236;-75
2022/10/27 09:47:34;;;;;;;0.73;0.73;;;13.90;99.90;;;;;;5034311;28;20236;-75
2022/10/27 09:50:04;;;;;;;1.20;1.02;;;14.00;99.90;;;;;;5052588;28;20200;-75
2022/10/27 09:52:39;;;;;;;1.33;1.23;;;14.10;99.90;;;;;;5073523;28;20220;-75
2022/10/27 09:55:05;;;;;;;1.45;0.88;;;14.20;99.90;;;;;;5055249;28;20193;-75
2022/10/27 09:57:34;;;;;;;1.23;0.80;;;14.30;99.90;;;;;;5055429;28;20201;-75
2022/10/27 10:00:15;;;;;;;1.65;1.38;;;14.10;99.90;;;;;;5073731;28;20189;-75
2022/10/27 10:02:54;;;;;;;0.65;0.65;;;14.00;99.90;;;;;;5073572;28;20197;-75
2022/10/27 10:05:25;;;;;;;3.45;1.02;;;14.00;99.90;;;;;;5055547;28;20204;-75
2022/10/27 10:07:51;;;;;;;0.77;0.77;;;14.10;99.90;;;;;;5071617;28;20201;-75
2022/10/27 10:10:17;;;;;;;0.40;0.40;;;14.10;99.90;;;;;;5053562;28;20216;-74
2022/10/27 10:12:42;;;;;;;0.75;0.75;;;14.10;99.90;;;;;;5053673;28;20198;-74
2022/10/27 10:15:11;;;;;;;0.50;0.50;;;14.10;99.90;;;;;;5039506;28;20212;-75
2022/10/27 10:17:40;;;;;;;0.47;0.47;;;14.10;99.90;;;;;;5033439;28;20201;-75
2022/10/27 10:20:22;;;;;;;1.33;0.80;;;14.10;99.90;;;;;;5015709;28;20202;-74
2022/10/27 10:22:49;;;;;;;0.88;0.68;;;14.00;99.90;;;;;;5017449;28;20193;-75
2022/10/27 10:25:22;;;;;;;0.88;0.88;;;13.90;99.90;;;;;;5053101;28;20193;-75
2022/10/27 10:28:00;;;;;;;0.70;0.70;;;13.70;99.90;;;;;;5053277;28;20200;-74
2022/10/27 10:30:26;;;;;;;0.60;0.60;;;13.80;99.90;;;;;;5035204;28;20251;-75
2022/10/27 10:32:56;;;;;;;0.70;0.70;;;13.80;99.90;;;;;;5053263;28;20198;-74
2022/10/27 10:35:42;;;;;;;1.33;1.10;;;13.80;99.90;;;;;;5053352;28;20275;-75
2022/10/27 10:38:23;;;;;;;19.08;1.60;;;13.90;99.90;;;;;;5035095;28;20296;-75
2022/10/27 10:41:11;;;;;;;0.57;0.57;;;13.80;99.90;;;;;;5053096;28;20189;-75
2022/10/27 10:43:37;;;;;;;0.40;0.40;;;13.80;99.90;;;;;;5035060;28;20276;-75
2022/10/27 10:46:04;;;;;;;1.02;0.88;;;13.80;99.90;;;;;;5060107;28;20812;-76
2022/10/27 10:48:31;;;;;;;1.10;1.10;;;13.80;99.90;;;;;;5072883;28;20193;-74
2022/10/27 10:50:58;;;;;;;1.02;0.70;;;13.80;99.90;;;;;;5055061;28;20631;-75
2022/10/27 10:53:49;;;;;;;2.25;1.05;;;13.80;99.90;;;;;;5054858;28;20193;-75
2022/10/27 10:56:36;;;;;;;0.55;0.55;;;13.80;99.90;;;;;;5055117;28;20200;-74
2022/10/27 10:59:15;;;;;;;25.52;1.27;;;13.70;99.90;;;;;;5055043;28;20218;-75
2022/10/27 11:01:50;;;;;;;0.50;0.50;;;13.70;99.90;;;;;;5054739;28;20287;-75
2022/10/27 11:04:25;;;;;;;0.60;0.60;;;13.70;99.90;;;;;;5070873;28;20193;-75
2022/10/27 11:07:06;;;;;;;8.50;2.92;;;13.60;99.90;;;;;;5037024;28;20708;-75
2022/10/27 11:09:44;;;;;;;0.77;0.77;;;13.50;99.90;;;;;;5056685;28;20229;-75
2022/10/27 11:12:43;;;;;;;0.65;0.65;;;13.60;99.90;;;;;;5019332;28;20198;-75
2022/10/27 11:15:34;;;;;;;0.50;0.50;;;13.60;99.90;;;;;;4936396;28;20202;-75
2022/10/27 11:18:25;;;;;;;1.30;1.10;;;13.60;99.90;;;;;;5036679;28;20209;-75
2022/10/27 11:21:20;;;;;;;0.50;0.50;;;13.60;99.90;;;;;;5053273;28;20200;-75
2022/10/27 11:23:46;;;;;;;0.88;0.65;;;13.60;99.90;;;;;;5056313;28;20243;-75
2022/10/27 11:26:17;;;;;;;1.27;1.17;;;13.70;99.90;;;;;;5056555;28;20644;-75
2022/10/27 11:28:47;;;;;;;2.55;0.95;;;13.90;99.90;;;;;;5056342;28;20212;-75
2022/10/27 11:31:38;;;;;;;0.73;0.73;;;14.20;99.90;;;;;;5056664;28;21108;-76
2022/10/27 11:34:18;;;;;;;0.63;0.57;;;14.70;99.90;;;;;;5038808;28;20217;-76
2022/10/27 11:36:50;;;;;;;3.75;1.95;;;14.70;99.90;;;;;;5056736;28;20194;-75
2022/10/27 11:39:42;;;;;;;0.80;0.80;;;14.80;99.90;;;;;;5056638;28;20717;-76
2022/10/27 11:42:41;;;;;;;0.57;0.57;;;15.00;99.90;;;;;;5043874;28;20193;-76
2022/10/27 11:45:30;;;;;;;0.50;0.50;;;15.20;99.90;;;;;;5075712;28;20228;-76
2022/10/27 11:48:06;;;;;;;0.60;0.60;;;15.30;99.90;;;;;;5056290;28;20711;-75
2022/10/27 11:51:05;;;;;;;2.00;1.40;;;15.30;99.90;;;;;;5056060;28;20298;-76
2022/10/27 11:53:31;;;;;;;5.57;1.15;;;15.30;99.90;;;;;;5038167;28;20695;-76
2022/10/27 11:56:26;;;;;;;4.97;1.95;;;15.40;99.90;;;;;;5038463;28;20217;-76
2022/10/27 11:59:21;;;;;;;10.60;1.60;;;15.40;99.90;;;;;;5038253;28;20578;-76
2022/10/27 12:02:12;;;;;;;0.82;0.82;;;15.30;99.90;;;;;;5055511;28;20215;-76
2022/10/27 12:04:54;;;;;;;0.50;0.50;;;15.10;99.90;;;;;;5055922;28;20718;-75
2022/10/27 12:07:47;;;;;;;0.65;0.65;;;15.10;99.90;;;;;;5037945;28;20193;-75
2022/10/27 12:10:46;;;;;;;0.50;0.50;;;15.00;99.90;;;;;;5038116;28;20198;-75
2022/10/27 12:13:20;;;;;;;0.50;0.50;;;15.00;99.90;;;;;;5055069;28;20284;-75
2022/10/27 12:15:55;;;;;;;2.05;1.48;;;15.00;99.90;;;;;;5055499;28;20237;-75
2022/10/27 12:18:46;;;;;;;1.67;1.52;;;15.10;99.90;;;;;;5054461;28;20232;-75
2022/10/27 12:21:23;;;;;;;5.50;0.68;;;15.10;99.90;;;;;;5055443;28;20539;-76
2022/10/27 12:24:02;;;;;;;2.33;1.73;;;15.10;99.90;;;;;;5055575;28;20181;-75
2022/10/27 12:26:45;;;;;;;0.93;0.82;;;15.10;99.90;;;;;;5037427;28;20194;-75
2022/10/27 12:29:12;;;;;;;1.35;0.75;;;15.10;99.90;;;;;;5037505;28;20611;-75
2022/10/27 12:31:44;;;;;;;0.47;0.47;;;15.10;99.90;;;;;;5037318;28;20288;-75
2022/10/27 12:34:14;;;;;;;0.93;0.93;;;15.10;99.90;;;;;;5055260;28;20281;-75
2022/10/27 12:36:51;;;;;;;0.82;0.50;;;15.20;99.90;;;;;;5036670;28;20213;-75
2022/10/27 12:39:44;;;;;;;0.65;0.60;;;15.40;99.90;;;;;;5068316;28;20577;-75
2022/10/27 12:42:19;;;;;;;1.48;0.60;;;15.50;99.90;;;;;;5075146;28;20195;-75
2022/10/27 12:44:51;;;;;;;7.53;1.52;;;15.60;99.90;;;;;;5056814;28;20278;-75
2022/10/27 12:47:25;;;;;;;1.25;1.00;;;15.40;99.90;;;;;;5056777;28;20198;-75
2022/10/27 12:50:28;;;;;;;0.70;0.70;;;15.20;99.90;;;;;;5055038;28;20306;-75
2022/10/27 12:53:20;;;;;;;1.10;0.75;;;15.10;99.90;;;;;;5054912;28;20181;-75
2022/10/27 12:55:57;;;;;;;0.40;0.40;;;15.00;99.90;;;;;;5054912;28;20652;-75
2022/10/27 12:58:46;;;;;;;0.40;0.40;;;15.00;99.90;;;;;;5036883;28;20217;-75
2022/10/27 13:01:11;;;;;;;0.60;0.60;;;14.90;99.90;;;;;;5054593;28;20661;-74
2022/10/27 13:04:01;;;;;;;0.93;0.68;;;14.90;99.90;;;;;;5054873;28;20209;-74
2022/10/27 13:06:58;;;;;;;0.68;0.68;;;14.80;99.90;;;;;;5054546;28;20204;-75
2022/10/27 13:09:40;;;;;;;0.88;0.88;;;14.60;99.90;;;;;;5054554;28;20686;-75